createdAt,value
2022-12-03T00:00:23.983Z,3.60
2022-12-03T00:02:52.176Z,3.62
2022-12-03T00:05:20.280Z,3.66
2022-12-03T00:07:48.274Z,3.70
2022-12-03T00:10:18.659Z,3.74
2022-12-03T00:12:46.724Z,3.79
2022-12-03T00:15:14.970Z,3.82
2022-12-03T00:17:42.911Z,3.85
2022-12-03T00:20:19.095Z,3.85
2022-12-03T00:22:48.102Z,3.82
2022-12-03T00:25:16.263Z,3.80
2022-12-03T00:27:45.607Z,3.72
2022-12-03T00:30:15.415Z,3.61
2022-12-03T00:32:43.610Z,3.60
2022-12-03T00:35:11.555Z,3.59
2022-12-03T00:37:39.580Z,3.56
2022-12-03T00:40:08.947Z,3.55
2022-12-03T00:42:36.914Z,3.50
2022-12-03T00:45:07.489Z,3.48
2022-12-03T00:47:35.472Z,3.52
2022-12-03T00:50:03.424Z,3.42
2022-12-03T00:52:31.527Z,3.47
2022-12-03T00:54:59.518Z,3.24
2022-12-03T00:57:27.471Z,3.37
2022-12-03T00:59:55.434Z,3.37
2022-12-03T01:02:24.753Z,3.44
2022-12-03T01:04:53.046Z,3.50
2022-12-03T01:07:21.331Z,3.42
2022-12-03T01:09:49.280Z,3.30
2022-12-03T01:12:17.182Z,3.40
2022-12-03T01:14:45.347Z,3.36
2022-12-03T01:17:13.390Z,3.43
2022-12-03T01:19:48.058Z,3.50
2022-12-03T01:22:16.455Z,3.51
2022-12-03T01:24:44.442Z,3.50
2022-12-03T01:27:12.391Z,3.43
2022-12-03T01:29:40.326Z,3.46
2022-12-03T01:32:19.702Z,3.41
2022-12-03T01:34:51.859Z,3.37
2022-12-03T01:37:22.402Z,3.38
2022-12-03T01:39:50.572Z,3.25
2022-12-03T01:42:20.788Z,3.48
2022-12-03T01:44:50.023Z,3.40
2022-12-03T01:47:19.859Z,3.38
2022-12-03T01:49:52.077Z,3.36
2022-12-03T01:52:25.155Z,3.45
2022-12-03T01:54:56.523Z,3.49
2022-12-03T01:57:27.575Z,3.44
2022-12-03T01:59:58.216Z,3.40
2022-12-03T02:02:28.447Z,3.40
2022-12-03T02:04:58.396Z,3.33
2022-12-03T02:07:28.366Z,3.39
2022-12-03T02:09:58.261Z,3.40
2022-12-03T02:12:31.129Z,3.51
2022-12-03T02:14:59.647Z,3.50
2022-12-03T02:17:28.182Z,3.46
2022-12-03T02:19:58.289Z,3.42
2022-12-03T02:22:38.617Z,3.43
2022-12-03T02:25:17.531Z,3.51
2022-12-03T02:27:46.620Z,3.59
2022-12-03T02:30:17.381Z,3.65
2022-12-03T02:32:45.750Z,3.69
2022-12-03T02:35:18.311Z,3.76
2022-12-03T02:37:48.526Z,3.77
2022-12-03T02:40:21.239Z,3.81
2022-12-03T02:42:50.438Z,3.60
2022-12-03T02:45:21.427Z,3.57
2022-12-03T02:47:52.862Z,3.48
2022-12-03T02:50:27.056Z,3.44
2022-12-03T02:52:57.741Z,3.44
2022-12-03T02:55:34.950Z,3.51
2022-12-03T02:58:05.922Z,3.59
2022-12-03T03:00:34.465Z,3.65
2022-12-03T03:03:04.208Z,3.67
2022-12-03T03:05:32.828Z,3.61
2022-12-03T03:08:01.764Z,3.63
2022-12-03T03:10:31.670Z,3.68
2022-12-03T03:13:00.097Z,3.69
2022-12-03T03:15:28.123Z,3.61
2022-12-03T03:17:56.202Z,3.54
2022-12-03T03:20:24.196Z,3.49
2022-12-03T03:22:52.252Z,3.43
2022-12-03T03:25:22.468Z,3.45
2022-12-03T03:27:51.808Z,3.50
2022-12-03T03:30:19.971Z,3.65
2022-12-03T03:32:47.969Z,3.58
2022-12-03T03:35:17.962Z,3.50
2022-12-03T03:37:45.988Z,3.43
2022-12-03T03:40:14.293Z,3.42
2022-12-03T03:42:42.587Z,3.49
2022-12-03T03:45:12.312Z,3.50
2022-12-03T03:47:40.707Z,3.45
2022-12-03T03:50:11.559Z,3.41
2022-12-03T03:52:41.294Z,3.20
2022-12-03T03:55:11.863Z,3.39
2022-12-03T03:57:40.783Z,3.34
2022-12-03T04:00:10.104Z,3.38
2022-12-03T04:02:39.436Z,3.40
2022-12-03T04:05:08.790Z,3.29
2022-12-03T04:07:36.788Z,3.44
2022-12-03T04:10:25.651Z,3.44
2022-12-03T04:12:57.118Z,3.47
2022-12-03T04:15:25.852Z,3.51
2022-12-03T04:18:09.054Z,3.53
2022-12-03T04:20:37.035Z,3.52
2022-12-03T04:23:04.187Z,3.49
2022-12-03T04:25:49.511Z,3.50
2022-12-03T04:28:35.042Z,3.47
2022-12-03T04:31:23.728Z,3.54
2022-12-03T04:34:12.642Z,3.53
2022-12-03T04:36:40.720Z,3.53
2022-12-03T04:39:08.637Z,3.54
2022-12-03T04:41:36.583Z,3.53
2022-12-03T04:44:21.854Z,3.52
2022-12-03T04:46:49.743Z,3.51
2022-12-03T04:49:18.987Z,3.54
2022-12-03T04:51:46.979Z,3.55
2022-12-03T04:54:15.133Z,3.55
2022-12-03T04:56:43.046Z,3.56
2022-12-03T04:59:15.963Z,3.54
2022-12-03T05:01:45.982Z,3.60
2022-12-03T05:04:14.698Z,3.60
2022-12-03T05:06:44.076Z,3.55
2022-12-03T05:09:12.395Z,3.52
2022-12-03T05:11:40.576Z,3.48
2022-12-03T05:14:09.232Z,3.45
2022-12-03T05:16:37.658Z,3.48
2022-12-03T05:19:07.003Z,3.47
2022-12-03T05:21:35.084Z,3.42
2022-12-03T05:24:05.131Z,3.52
2022-12-03T05:26:33.083Z,3.51
2022-12-03T05:29:02.502Z,3.49
2022-12-03T05:31:30.523Z,3.48
2022-12-03T05:33:58.487Z,3.47
2022-12-03T05:36:26.453Z,3.47
2022-12-03T05:38:54.433Z,3.55
2022-12-03T05:41:41.240Z,3.58
2022-12-03T05:44:09.444Z,3.55
2022-12-03T05:46:37.462Z,3.51
2022-12-03T05:49:05.489Z,3.55
2022-12-03T05:51:33.462Z,3.56
2022-12-03T05:54:01.411Z,3.50
2022-12-03T05:56:30.675Z,3.55
2022-12-03T05:58:58.602Z,3.55
2022-12-03T06:01:26.515Z,3.53
2022-12-03T06:03:54.492Z,3.58
2022-12-03T06:06:22.538Z,3.60
2022-12-03T06:08:50.989Z,3.60
2022-12-03T06:11:18.973Z,3.62
2022-12-03T06:13:48.234Z,3.62
2022-12-03T06:16:16.236Z,3.64
2022-12-03T06:18:44.184Z,3.65
2022-12-03T06:21:12.095Z,3.66
2022-12-03T06:23:44.542Z,3.61
2022-12-03T06:26:12.854Z,3.61
2022-12-03T06:28:40.879Z,3.65
2022-12-03T06:31:10.321Z,3.70
2022-12-03T06:33:38.268Z,3.78
2022-12-03T06:36:07.026Z,3.87
2022-12-03T06:38:34.995Z,3.96
2022-12-03T06:41:02.963Z,3.95
2022-12-03T06:43:31.132Z,3.88
2022-12-03T06:45:59.145Z,3.83
2022-12-03T06:48:28.387Z,3.86
2022-12-03T06:50:56.263Z,3.84
2022-12-03T06:53:26.131Z,3.77
2022-12-03T06:55:54.058Z,3.73
2022-12-03T06:58:22.055Z,3.72
2022-12-03T07:00:49.939Z,3.74
2022-12-03T07:03:17.995Z,3.73
2022-12-03T07:05:47.313Z,3.73
2022-12-03T07:08:15.284Z,3.83
2022-12-03T07:10:43.275Z,3.91
2022-12-03T07:13:11.204Z,3.88
2022-12-03T07:15:39.136Z,3.94
2022-12-03T07:18:07.286Z,4.04
2022-12-03T07:20:35.181Z,4.14
2022-12-03T07:23:04.590Z,4.22
2022-12-03T07:25:32.545Z,4.30
2022-12-03T07:28:00.630Z,4.30
2022-12-03T07:30:28.791Z,4.34
2022-12-03T07:32:58.187Z,4.39
2022-12-03T07:35:26.072Z,4.44
2022-12-03T07:37:53.971Z,4.48
2022-12-03T07:40:23.336Z,4.50
2022-12-03T07:42:51.307Z,4.53
2022-12-03T07:45:19.270Z,4.58
2022-12-03T07:47:47.239Z,4.62
2022-12-03T07:50:15.327Z,4.64
2022-12-03T07:52:43.314Z,4.65
2022-12-03T07:55:13.311Z,4.65
2022-12-03T07:57:42.557Z,4.65
2022-12-03T08:00:12.802Z,4.65
2022-12-03T08:02:40.900Z,4.69
2022-12-03T08:05:09.156Z,4.71
2022-12-03T08:07:37.192Z,4.74
2022-12-03T08:10:05.871Z,4.81
2022-12-03T08:12:41.051Z,4.90
2022-12-03T08:15:17.050Z,4.92
2022-12-03T08:17:46.579Z,4.74
2022-12-03T08:20:17.353Z,4.99
2022-12-03T08:22:47.543Z,5.01
2022-12-03T08:25:21.418Z,5.02
2022-12-03T08:27:49.379Z,5.08
2022-12-03T08:30:19.866Z,5.15
2022-12-03T08:32:48.771Z,5.04
2022-12-03T08:35:23.557Z,5.26
2022-12-03T08:37:58.243Z,5.29
2022-12-03T08:40:34.507Z,5.28
2022-12-03T08:43:01.791Z,5.28
2022-12-03T08:45:41.741Z,5.24
2022-12-03T08:48:33.663Z,5.08
2022-12-03T08:51:05.832Z,5.26
2022-12-03T08:53:36.082Z,5.26
2022-12-03T08:56:14.122Z,5.30
2022-12-03T08:58:44.001Z,5.36
2022-12-03T09:01:33.598Z,5.40
2022-12-03T09:04:24.891Z,5.45
2022-12-03T09:06:53.985Z,5.45
2022-12-03T09:09:22.715Z,5.45
2022-12-03T09:11:50.954Z,5.40
2022-12-03T09:14:21.215Z,5.48
2022-12-03T09:16:51.953Z,5.50
2022-12-03T09:19:20.018Z,5.51
2022-12-03T09:21:47.988Z,5.53
2022-12-03T09:24:15.909Z,5.49
2022-12-03T09:26:43.879Z,5.53
2022-12-03T09:29:12.607Z,5.58
2022-12-03T09:31:41.211Z,5.64
2022-12-03T09:34:10.991Z,5.66
2022-12-03T09:36:39.192Z,5.62
2022-12-03T09:39:07.139Z,5.66
2022-12-03T09:41:35.222Z,5.77
2022-12-03T09:44:04.863Z,5.83
2022-12-03T09:46:35.275Z,5.85
2022-12-03T09:49:03.585Z,5.88
2022-12-03T09:51:36.567Z,5.95
2022-12-03T09:54:07.568Z,5.97
2022-12-03T09:56:38.930Z,6.00
2022-12-03T09:59:13.639Z,6.09
2022-12-03T10:01:41.817Z,6.08
2022-12-03T10:04:10.333Z,6.10
2022-12-03T10:06:45.584Z,6.04
2022-12-03T10:09:17.730Z,6.08
2022-12-03T10:11:45.840Z,6.08
2022-12-03T10:14:15.233Z,6.07
2022-12-03T10:16:43.670Z,6.09
2022-12-03T10:19:20.200Z,6.05
2022-12-03T10:21:49.565Z,6.09
2022-12-03T10:24:23.205Z,6.13
2022-12-03T10:26:53.353Z,6.15
2022-12-03T10:29:25.811Z,6.15
2022-12-03T10:31:59.268Z,6.10
2022-12-03T10:34:31.454Z,6.07
2022-12-03T10:37:16.540Z,6.14
2022-12-03T10:39:56.216Z,6.14
2022-12-03T10:42:25.680Z,6.13
2022-12-03T10:45:09.178Z,6.12
2022-12-03T10:47:37.162Z,6.17
2022-12-03T10:50:10.207Z,6.15
2022-12-03T10:52:39.550Z,6.13
2022-12-03T10:55:10.379Z,6.13
2022-12-03T10:57:43.761Z,6.11
2022-12-03T11:00:17.269Z,6.07
2022-12-03T11:02:46.775Z,6.09
2022-12-03T11:05:19.392Z,6.06
2022-12-03T11:07:49.003Z,6.06
2022-12-03T11:10:19.364Z,6.06
2022-12-03T11:13:20.777Z,6.08
2022-12-03T11:15:48.915Z,6.16
2022-12-03T11:18:50.196Z,6.17
2022-12-03T11:21:20.748Z,6.20
2022-12-03T11:24:19.770Z,6.26
2022-12-03T11:27:20.670Z,6.27
2022-12-03T11:30:02.445Z,6.24
2022-12-03T11:33:09.573Z,6.29
2022-12-03T11:36:12.401Z,6.33
2022-12-03T11:38:52.663Z,6.42
2022-12-03T11:41:31.303Z,6.45
2022-12-03T11:44:30.823Z,6.39
2022-12-03T11:47:02.114Z,6.43
2022-12-03T11:49:35.349Z,6.43
2022-12-03T11:52:13.253Z,6.42
2022-12-03T11:54:42.274Z,6.39
2022-12-03T11:57:28.366Z,6.42
2022-12-03T12:00:01.550Z,6.43
2022-12-03T12:02:40.312Z,6.48
2022-12-03T12:05:28.030Z,6.49
2022-12-03T12:07:58.403Z,6.53
2022-12-03T12:10:47.943Z,6.56
2022-12-03T12:13:55.651Z,6.57
2022-12-03T12:16:50.529Z,6.52
2022-12-03T12:19:33.209Z,6.41
2022-12-03T12:22:18.855Z,6.38
2022-12-03T12:24:52.833Z,6.35
2022-12-03T12:27:22.879Z,6.27
2022-12-03T12:29:56.146Z,6.26
2022-12-03T12:32:31.493Z,6.23
2022-12-03T12:35:03.518Z,6.20
2022-12-03T12:37:36.234Z,6.19
2022-12-03T12:40:13.324Z,6.11
2022-12-03T12:42:49.637Z,6.18
2022-12-03T12:45:20.335Z,6.19
2022-12-03T12:48:03.127Z,6.20
2022-12-03T12:50:32.058Z,6.20
2022-12-03T12:53:03.815Z,6.27
2022-12-03T12:55:31.817Z,6.37
2022-12-03T12:58:05.418Z,6.45
2022-12-03T13:00:33.361Z,6.43
2022-12-03T13:03:04.668Z,6.33
2022-12-03T13:05:39.415Z,6.31
2022-12-03T13:08:22.535Z,6.30
2022-12-03T13:10:51.311Z,6.26
2022-12-03T13:13:31.991Z,6.23
2022-12-03T13:16:03.763Z,6.25
2022-12-03T13:18:46.084Z,6.29
2022-12-03T13:21:21.173Z,6.22
2022-12-03T13:23:50.171Z,6.18
2022-12-03T13:29:16.047Z,6.10
2022-12-03T13:31:50.026Z,6.09
2022-12-03T13:34:22.782Z,6.08
2022-12-03T13:36:57.565Z,6.05
2022-12-03T13:39:30.505Z,6.01
2022-12-03T13:42:17.836Z,5.95
2022-12-03T13:44:48.747Z,5.97
2022-12-03T13:47:21.865Z,5.94
2022-12-03T13:49:56.590Z,5.89
2022-12-03T13:52:26.952Z,5.87
2022-12-03T13:54:57.001Z,5.89
2022-12-03T13:57:25.005Z,5.87
2022-12-03T13:59:53.199Z,5.87
2022-12-03T14:02:21.558Z,5.83
2022-12-03T14:04:49.557Z,5.82
2022-12-03T14:07:18.915Z,5.82
2022-12-03T14:09:46.835Z,5.82
2022-12-03T14:12:26.688Z,5.81
2022-12-03T14:14:55.280Z,5.81
2022-12-03T14:17:23.210Z,5.84
2022-12-03T14:19:51.217Z,5.82
2022-12-03T14:22:23.439Z,5.81
2022-12-03T14:24:51.405Z,5.82
2022-12-03T14:27:19.456Z,5.80
2022-12-03T14:29:47.722Z,5.79
2022-12-03T14:32:15.775Z,5.79
2022-12-03T14:34:44.057Z,5.78
2022-12-03T14:37:12.073Z,5.74
2022-12-03T14:39:41.424Z,5.72
2022-12-03T14:42:15.058Z,5.71
2022-12-03T14:44:44.874Z,5.72
2022-12-03T14:47:13.395Z,5.66
2022-12-03T14:49:41.598Z,5.72
2022-12-03T14:52:12.425Z,5.72
2022-12-03T14:54:43.178Z,5.74
2022-12-03T14:57:12.664Z,5.74
2022-12-03T14:59:41.822Z,5.76
2022-12-03T15:02:10.494Z,5.78
2022-12-03T15:04:38.750Z,5.77
2022-12-03T15:07:07.102Z,5.86
2022-12-03T15:09:35.654Z,5.81
2022-12-03T15:12:05.944Z,5.84
2022-12-03T15:14:34.005Z,5.83
2022-12-03T15:17:02.115Z,5.82
2022-12-03T15:19:30.160Z,5.82
2022-12-03T15:21:58.282Z,5.83
2022-12-03T15:24:26.268Z,5.83
2022-12-03T15:26:54.214Z,5.84
2022-12-03T15:29:24.695Z,5.85
2022-12-03T15:31:52.709Z,5.88
2022-12-03T15:34:22.783Z,5.92
2022-12-03T15:36:51.455Z,5.98
2022-12-03T15:39:19.411Z,6.01
2022-12-03T15:41:48.214Z,6.05
2022-12-03T15:44:16.269Z,6.03
2022-12-03T15:46:45.671Z,6.10
2022-12-03T15:49:13.660Z,6.12
2022-12-03T15:51:41.649Z,6.13
2022-12-03T15:54:12.097Z,6.12
2022-12-03T15:56:40.077Z,6.15
2022-12-03T15:59:07.948Z,6.15
2022-12-03T16:01:35.958Z,6.15
2022-12-03T16:04:05.556Z,6.16
2022-12-03T16:06:33.951Z,6.18
2022-12-03T16:09:02.011Z,6.18
2022-12-03T16:11:30.098Z,6.17
2022-12-03T16:13:58.151Z,6.18
2022-12-03T16:16:26.475Z,6.13
2022-12-03T16:18:54.849Z,6.17
2022-12-03T16:21:27.038Z,6.21
2022-12-03T16:23:55.909Z,6.22
2022-12-03T16:26:24.512Z,6.23
2022-12-03T16:28:53.178Z,6.25
2022-12-03T16:31:21.647Z,6.25
2022-12-03T16:33:49.972Z,6.25
2022-12-03T16:36:18.248Z,6.26
2022-12-03T16:38:47.930Z,6.11
2022-12-03T16:41:16.017Z,6.24
2022-12-03T16:43:47.232Z,6.23
2022-12-03T16:46:25.783Z,6.23
2022-12-03T16:48:55.340Z,6.25
2022-12-03T16:51:27.145Z,6.26
2022-12-03T16:53:56.845Z,6.22
2022-12-03T16:56:25.131Z,6.27
2022-12-03T16:58:53.263Z,6.30
2022-12-03T17:01:23.449Z,6.31
2022-12-03T17:03:51.642Z,6.34
2022-12-03T17:06:20.559Z,6.31
2022-12-03T17:08:49.842Z,6.36
2022-12-03T17:11:19.946Z,6.37
2022-12-03T17:13:48.185Z,6.36
2022-12-03T17:16:16.138Z,6.28
2022-12-03T17:18:44.153Z,6.34
2022-12-03T17:21:12.120Z,6.35
2022-12-03T17:23:40.089Z,6.35
2022-12-03T17:26:08.097Z,6.33
2022-12-03T17:28:37.492Z,6.25
2022-12-03T17:31:05.649Z,6.34
2022-12-03T17:33:34.031Z,6.26
2022-12-03T17:36:02.657Z,6.36
2022-12-03T17:38:35.614Z,6.36
2022-12-03T17:41:07.361Z,6.37
2022-12-03T17:43:35.300Z,6.37
2022-12-03T17:46:06.553Z,6.37
2022-12-03T17:48:50.185Z,6.34
2022-12-03T17:51:19.314Z,6.32
2022-12-03T17:53:47.489Z,6.37
2022-12-03T17:56:15.406Z,6.39
2022-12-03T17:58:43.375Z,6.40
2022-12-03T18:01:12.864Z,6.41
2022-12-03T18:03:40.880Z,6.40
2022-12-03T18:06:09.271Z,6.43
2022-12-03T18:08:37.164Z,6.42
2022-12-03T18:11:05.450Z,6.44
2022-12-03T18:13:33.453Z,6.46
2022-12-03T18:16:01.547Z,6.49
2022-12-03T18:18:30.903Z,6.52
2022-12-03T18:21:02.036Z,6.55
2022-12-03T18:23:30.077Z,6.54
2022-12-03T18:25:58.418Z,6.51
2022-12-03T18:28:26.453Z,6.48
2022-12-03T18:30:54.891Z,6.44
2022-12-03T18:33:23.535Z,6.43
2022-12-03T18:35:56.844Z,6.34
2022-12-03T18:38:29.673Z,6.37
2022-12-03T18:40:58.783Z,6.32
2022-12-03T18:43:28.040Z,6.33
2022-12-03T18:45:56.060Z,6.34
2022-12-03T18:48:24.053Z,6.36
2022-12-03T18:50:51.989Z,6.36
2022-12-03T18:53:21.587Z,6.29
2022-12-03T18:55:49.895Z,6.35
2022-12-03T18:58:19.315Z,6.33
2022-12-03T19:00:47.468Z,6.29
2022-12-03T19:03:15.698Z,6.30
2022-12-03T19:05:44.411Z,6.32
2022-12-03T19:08:15.255Z,6.31
2022-12-03T19:10:45.012Z,6.33
2022-12-03T19:13:13.490Z,6.35
2022-12-03T19:15:42.392Z,6.25
2022-12-03T19:18:10.314Z,6.36
2022-12-03T19:20:41.817Z,6.33
2022-12-03T19:23:10.575Z,6.30
2022-12-03T19:25:38.928Z,6.34
2022-12-03T19:28:09.037Z,6.34
2022-12-03T19:30:37.735Z,6.29
2022-12-03T19:33:05.776Z,6.31
2022-12-03T19:35:33.727Z,6.36
2022-12-03T19:38:01.781Z,6.36
2022-12-03T19:40:32.102Z,6.30
2022-12-03T19:43:01.400Z,6.29
2022-12-03T19:45:30.891Z,6.29
2022-12-03T19:48:00.380Z,6.32
2022-12-03T19:50:28.878Z,6.27
2022-12-03T19:52:57.260Z,6.33
2022-12-03T19:55:25.281Z,6.30
2022-12-03T19:57:53.694Z,6.38
2022-12-03T20:00:22.637Z,6.40
2022-12-03T20:02:52.042Z,6.44
2022-12-03T20:05:20.069Z,6.46
2022-12-03T20:07:48.103Z,6.44
2022-12-03T20:10:16.221Z,6.49
2022-12-03T20:12:44.149Z,6.51
2022-12-03T20:15:13.594Z,6.54
2022-12-03T20:17:41.493Z,6.58
2022-12-03T20:20:11.977Z,6.60
2022-12-03T20:22:39.963Z,6.64
2022-12-03T20:25:08.793Z,6.67
2022-12-03T20:27:37.424Z,6.69
2022-12-03T20:30:06.857Z,6.70
2022-12-03T20:32:40.551Z,6.76
2022-12-03T20:35:13.019Z,6.80
2022-12-03T20:37:40.950Z,6.82
2022-12-03T20:40:10.046Z,6.84
2022-12-03T20:42:37.982Z,6.85
2022-12-03T20:45:07.150Z,6.85
2022-12-03T20:47:35.100Z,6.86
2022-12-03T20:50:03.086Z,6.84
2022-12-03T20:52:32.366Z,6.80
2022-12-03T20:55:00.694Z,6.79
2022-12-03T20:57:28.855Z,6.80
2022-12-03T20:59:56.959Z,6.80
2022-12-03T21:02:24.962Z,6.78
2022-12-03T21:04:54.359Z,6.76
2022-12-03T21:07:22.244Z,6.79
2022-12-03T21:09:51.876Z,6.81
2022-12-03T21:12:19.988Z,6.80
2022-12-03T21:14:48.242Z,6.75
2022-12-03T21:17:16.219Z,6.69
2022-12-03T21:19:44.252Z,6.51
2022-12-03T21:22:12.244Z,6.59
2022-12-03T21:24:42.691Z,6.63
2022-12-03T21:27:14.597Z,6.65
2022-12-03T21:29:46.351Z,6.64
2022-12-03T21:32:14.339Z,6.60
2022-12-03T21:34:42.893Z,6.62
2022-12-03T21:37:10.895Z,6.64
2022-12-03T21:39:38.939Z,6.59
2022-12-03T21:42:25.971Z,6.63
2022-12-03T21:44:56.202Z,6.62
2022-12-03T21:47:24.153Z,6.55
2022-12-03T21:49:52.227Z,6.53
2022-12-03T21:52:20.356Z,6.51
2022-12-03T21:54:48.286Z,6.53
2022-12-03T21:57:16.278Z,6.52
2022-12-03T21:59:44.224Z,6.51
2022-12-03T22:02:13.785Z,6.53
2022-12-03T22:04:41.799Z,6.57
2022-12-03T22:07:09.971Z,6.59
2022-12-03T22:09:38.381Z,6.55
2022-12-03T22:12:06.994Z,6.52
2022-12-03T22:14:34.917Z,6.47
2022-12-03T22:17:02.969Z,6.41
2022-12-03T22:19:32.571Z,6.42
2022-12-03T22:22:00.480Z,6.40
2022-12-03T22:24:28.493Z,6.45
2022-12-03T22:26:56.520Z,6.48
2022-12-03T22:29:24.490Z,6.49
2022-12-03T22:31:52.636Z,6.47
2022-12-03T22:34:20.565Z,6.45
2022-12-03T22:36:49.931Z,6.45
2022-12-03T22:39:17.971Z,6.41
2022-12-03T22:41:45.950Z,6.45
2022-12-03T22:44:14.349Z,6.44
2022-12-03T22:46:42.409Z,6.44
2022-12-03T22:49:10.410Z,6.41
2022-12-03T22:51:38.345Z,6.43
2022-12-03T22:54:07.682Z,6.43
2022-12-03T22:56:36.067Z,6.43
2022-12-03T22:59:04.142Z,6.44
2022-12-03T23:01:34.367Z,6.48
2022-12-03T23:04:03.613Z,6.48
2022-12-03T23:06:32.767Z,6.53
2022-12-03T23:09:00.739Z,6.54
2022-12-03T23:11:30.126Z,6.56
2022-12-03T23:13:58.933Z,6.53
2022-12-03T23:16:29.710Z,6.42
2022-12-03T23:18:59.522Z,6.58
2022-12-03T23:21:30.697Z,6.56
2022-12-03T23:23:59.637Z,6.56
2022-12-03T23:26:27.946Z,6.58
2022-12-03T23:28:57.624Z,6.66
2022-12-03T23:31:27.375Z,6.68
2022-12-03T23:33:56.523Z,6.72
2022-12-03T23:36:26.234Z,6.74
2022-12-03T23:38:54.891Z,6.76
2022-12-03T23:41:24.528Z,6.66
2022-12-03T23:43:52.687Z,6.85
2022-12-03T23:46:24.475Z,6.93
2022-12-03T23:48:53.282Z,6.99
2022-12-03T23:51:24.246Z,7.03
2022-12-03T23:53:53.330Z,7.10
2022-12-03T23:56:23.243Z,7.10
2022-12-03T23:58:51.622Z,7.15
